sensor_id;sensor_type;location;lat;lon;timestamp;pressure;altitude;pressure_sealevel;temperature;humidity
48872;BME280;36154;51.674;7.824;2023-02-03T00:01:52;101504.13;;;19.92;45.90
48872;BME280;36154;51.674;7.824;2023-02-03T00:04:18;101509.28;;;19.92;45.84
48872;BME280;36154;51.674;7.824;2023-02-03T00:06:43;101508.44;;;19.92;46.05
48872;BME280;36154;51.674;7.824;2023-02-03T00:09:09;101497.25;;;19.91;45.92
48872;BME280;36154;51.674;7.824;2023-02-03T00:11:34;101494.66;;;19.91;46.08
48872;BME280;36154;51.674;7.824;2023-02-03T00:14:00;101497.25;;;19.91;46.01
48872;BME280;36154;51.674;7.824;2023-02-03T00:16:25;101500.69;;;19.90;46.09
48872;BME280;36154;51.674;7.824;2023-02-03T00:18:50;101485.19;;;19.90;45.50
48872;BME280;36154;51.674;7.824;2023-02-03T00:21:16;101487.75;;;19.90;46.02
48872;BME280;36154;51.674;7.824;2023-02-03T00:23:41;101482.59;;;19.89;46.07
48872;BME280;36154;51.674;7.824;2023-02-03T00:26:08;101486.91;;;19.91;46.06
48872;BME280;36154;51.674;7.824;2023-02-03T00:28:34;101484.34;;;19.90;45.86
48872;BME280;36154;51.674;7.824;2023-02-03T00:30:59;101474.84;;;19.90;45.88
48872;BME280;36154;51.674;7.824;2023-02-03T00:33:25;101484.34;;;19.88;45.89
48872;BME280;36154;51.674;7.824;2023-02-03T00:35:50;101486.94;;;19.88;45.91
48872;BME280;36154;51.674;7.824;2023-02-03T00:38:15;101492.97;;;19.89;46.06
48872;BME280;36154;51.674;7.824;2023-02-03T00:40:41;101487.78;;;19.89;46.15
48872;BME280;36154;51.674;7.824;2023-02-03T00:43:06;101492.97;;;19.87;46.16
48872;BME280;36154;51.674;7.824;2023-02-03T00:45:31;101491.22;;;19.88;46.02
48872;BME280;36154;51.674;7.824;2023-02-03T00:47:56;101496.41;;;19.88;46.24
48872;BME280;36154;51.674;7.824;2023-02-03T00:50:22;101495.56;;;19.87;46.03
48872;BME280;36154;51.674;7.824;2023-02-03T00:52:47;101507.63;;;19.87;46.09
48872;BME280;36154;51.674;7.824;2023-02-03T00:55:12;101510.22;;;19.87;46.09
48872;BME280;36154;51.674;7.824;2023-02-03T00:57:38;101505.91;;;19.86;46.14
48872;BME280;36154;51.674;7.824;2023-02-03T01:00:04;101494.72;;;19.85;45.98
48872;BME280;36154;51.674;7.824;2023-02-03T01:02:29;101499.91;;;19.85;46.01
48872;BME280;36154;51.674;7.824;2023-02-03T01:04:54;101502.47;;;19.85;46.30
48872;BME280;36154;51.674;7.824;2023-02-03T01:07:20;101518.88;;;19.84;46.17
48872;BME280;36154;51.674;7.824;2023-02-03T01:09:45;101517.09;;;19.86;45.96
48872;BME280;36154;51.674;7.824;2023-02-03T01:12:11;101522.28;;;19.86;46.18
48872;BME280;36154;51.674;7.824;2023-02-03T01:14:36;101527.50;;;19.85;45.95
48872;BME280;36154;51.674;7.824;2023-02-03T01:17:01;101524.03;;;19.84;46.02
48872;BME280;36154;51.674;7.824;2023-02-03T01:19:26;101533.53;;;19.85;46.12
48872;BME280;36154;51.674;7.824;2023-02-03T01:21:52;101530.94;;;19.84;46.06
48872;BME280;36154;51.674;7.824;2023-02-03T01:24:17;101528.34;;;19.85;46.06
48872;BME280;36154;51.674;7.824;2023-02-03T01:26:43;101523.19;;;19.85;46.05
48872;BME280;36154;51.674;7.824;2023-02-03T01:29:09;101524.94;;;19.83;46.12
48872;BME280;36154;51.674;7.824;2023-02-03T01:31:37;101526.63;;;19.84;46.07
48872;BME280;36154;51.674;7.824;2023-02-03T01:34:07;101528.38;;;19.84;46.13
48872;BME280;36154;51.674;7.824;2023-02-03T01:36:35;101536.97;;;19.84;46.10
48872;BME280;36154;51.674;7.824;2023-02-03T01:39:00;101526.63;;;19.84;46.15
48872;BME280;36154;51.674;7.824;2023-02-03T01:41:29;101524.03;;;19.84;46.00
48872;BME280;36154;51.674;7.824;2023-02-03T01:43:56;101517.16;;;19.83;46.12
48872;BME280;36154;51.674;7.824;2023-02-03T01:46:34;101513.72;;;19.83;46.15
48872;BME280;36154;51.674;7.824;2023-02-03T01:49:14;101524.94;;;19.83;46.12
48872;BME280;36154;51.674;7.824;2023-02-03T01:51:43;101521.47;;;19.83;45.97
48872;BME280;36154;51.674;7.824;2023-02-03T01:54:14;101512.88;;;19.82;46.11
48872;BME280;36154;51.674;7.824;2023-02-03T01:56:46;101517.16;;;19.83;46.18
48872;BME280;36154;51.674;7.824;2023-02-03T01:59:15;101513.72;;;19.83;45.85
48872;BME280;36154;51.674;7.824;2023-02-03T02:01:42;101484.44;;;19.81;46.05
48872;BME280;36154;51.674;7.824;2023-02-03T02:04:09;101512.88;;;19.82;46.11
48872;BME280;36154;51.674;7.824;2023-02-03T02:06:35;101518.03;;;19.82;46.11
48872;BME280;36154;51.674;7.824;2023-02-03T02:09:01;101518.91;;;19.81;46.11
48872;BME280;36154;51.674;7.824;2023-02-03T02:11:27;101505.97;;;19.81;46.20
48872;BME280;36154;51.674;7.824;2023-02-03T02:13:56;101497.34;;;19.82;45.99
48872;BME280;36154;51.674;7.824;2023-02-03T02:22:13;101468.06;;;19.80;46.13
48872;BME280;36154;51.674;7.824;2023-02-03T02:43:29;101428.44;;;19.78;46.19
48872;BME280;36154;51.674;7.824;2023-02-03T02:46:02;101420.72;;;19.77;46.03
48872;BME280;36154;51.674;7.824;2023-02-03T02:48:36;101413.81;;;19.77;46.02
48872;BME280;36154;51.674;7.824;2023-02-03T02:51:06;101400.88;;;19.77;46.09
48872;BME280;36154;51.674;7.824;2023-02-03T02:53:39;101409.50;;;19.76;46.00
48872;BME280;36154;51.674;7.824;2023-02-03T02:56:11;101422.41;;;19.76;45.95
48872;BME280;36154;51.674;7.824;2023-02-03T02:58:40;101424.16;;;19.77;45.92
48872;BME280;36154;51.674;7.824;2023-02-03T03:01:08;101426.72;;;19.77;46.07
48872;BME280;36154;51.674;7.824;2023-02-03T03:03:34;101458.63;;;19.76;46.12
48872;BME280;36154;51.674;7.824;2023-02-03T03:06:02;101457.75;;;19.77;46.10
48872;BME280;36154;51.674;7.824;2023-02-03T03:08:35;101459.50;;;19.77;46.09
48872;BME280;36154;51.674;7.824;2023-02-03T03:11:03;101475.84;;;19.77;46.01
48872;BME280;36154;51.674;7.824;2023-02-03T03:13:33;101486.19;;;19.77;46.15
48872;BME280;36154;51.674;7.824;2023-02-03T03:16:02;101473.28;;;19.77;45.92
48872;BME280;36154;51.674;7.824;2023-02-03T03:18:48;101468.09;;;19.77;46.01
48872;BME280;36154;51.674;7.824;2023-02-03T03:21:17;101459.50;;;19.75;46.06
48872;BME280;36154;51.674;7.824;2023-02-03T03:23:45;101451.78;;;19.73;45.94
48872;BME280;36154;51.674;7.824;2023-02-03T03:28:51;101441.44;;;19.73;46.03
48872;BME280;36154;51.674;7.824;2023-02-03T03:31:19;101454.38;;;19.73;46.10
48872;BME280;36154;51.674;7.824;2023-02-03T03:33:45;101457.78;;;19.74;46.04
48872;BME280;36154;51.674;7.824;2023-02-03T03:37:04;101458.63;;;19.74;45.88
48872;BME280;36154;51.674;7.824;2023-02-03T03:39:54;101452.63;;;19.74;46.03
48872;BME280;36154;51.674;7.824;2023-02-03T03:45:12;101456.13;;;19.70;46.04
48872;BME280;36154;51.674;7.824;2023-02-03T03:47:45;101444.91;;;19.69;46.15
48872;BME280;36154;51.674;7.824;2023-02-03T03:50:18;101456.13;;;19.70;45.96
48872;BME280;36154;51.674;7.824;2023-02-03T03:52:45;101449.25;;;19.69;46.14
48872;BME280;36154;51.674;7.824;2023-02-03T03:55:13;101457.81;;;19.71;46.09
48872;BME280;36154;51.674;7.824;2023-02-03T03:57:45;101463.00;;;19.71;45.97
48872;BME280;36154;51.674;7.824;2023-02-03T04:00:15;101450.06;;;19.71;45.95
48872;BME280;36154;51.674;7.824;2023-02-03T04:02:43;101438.03;;;19.71;46.11
48872;BME280;36154;51.674;7.824;2023-02-03T04:05:11;101434.53;;;19.72;46.03
48872;BME280;36154;51.674;7.824;2023-02-03T04:07:42;101409.53;;;19.73;46.03
48872;BME280;36154;51.674;7.824;2023-02-03T04:10:37;101419.88;;;19.73;45.92
48872;BME280;36154;51.674;7.824;2023-02-03T04:13:02;101423.31;;;19.77;45.85
48872;BME280;36154;51.674;7.824;2023-02-03T04:15:28;101427.56;;;19.79;46.05
48872;BME280;36154;51.674;7.824;2023-02-03T04:17:54;101448.19;;;19.84;45.96
48872;BME280;36154;51.674;7.824;2023-02-03T04:20:21;101439.50;;;19.88;45.86
48872;BME280;36154;51.674;7.824;2023-02-03T04:22:46;101440.34;;;19.91;46.05
48872;BME280;36154;51.674;7.824;2023-02-03T04:25:12;101445.44;;;19.94;45.83
48872;BME280;36154;51.674;7.824;2023-02-03T04:27:37;101445.41;;;19.98;45.90
48872;BME280;36154;51.674;7.824;2023-02-03T04:30:03;101425.53;;;20.01;45.90
48872;BME280;36154;51.674;7.824;2023-02-03T04:32:29;101425.50;;;20.04;46.03
48872;BME280;36154;51.674;7.824;2023-02-03T04:34:56;101426.31;;;20.08;45.88
48872;BME280;36154;51.674;7.824;2023-02-03T04:37:21;101402.97;;;20.11;45.95
48872;BME280;36154;51.674;7.824;2023-02-03T04:39:48;101392.59;;;20.14;45.85
48872;BME280;36154;51.674;7.824;2023-02-03T04:42:14;101402.06;;;20.17;45.29
48872;BME280;36154;51.674;7.824;2023-02-03T04:44:39;101402.88;;;20.19;45.73
48872;BME280;36154;51.674;7.824;2023-02-03T04:47:04;101398.50;;;20.22;45.81
48872;BME280;36154;51.674;7.824;2023-02-03T04:49:29;101413.16;;;20.23;45.86
48872;BME280;36154;51.674;7.824;2023-02-03T04:51:55;101413.09;;;20.26;45.74
48872;BME280;36154;51.674;7.824;2023-02-03T04:54:20;101413.94;;;20.28;45.60
48872;BME280;36154;51.674;7.824;2023-02-03T04:56:45;101410.47;;;20.29;45.65
48872;BME280;36154;51.674;7.824;2023-02-03T04:59:11;101411.34;;;20.30;45.74
48872;BME280;36154;51.674;7.824;2023-02-03T05:01:36;101400.09;;;20.31;45.50
48872;BME280;36154;51.674;7.824;2023-02-03T05:04:04;101422.53;;;20.30;45.63
48872;BME280;36154;51.674;7.824;2023-02-03T05:06:29;101402.66;;;20.33;45.87
48872;BME280;36154;51.674;7.824;2023-02-03T05:08:56;101403.53;;;20.31;45.49
48872;BME280;36154;51.674;7.824;2023-02-03T05:11:21;101405.25;;;20.33;45.34
48872;BME280;36154;51.674;7.824;2023-02-03T05:13:49;101390.59;;;20.31;45.17
48872;BME280;36154;51.674;7.824;2023-02-03T05:16:14;101394.91;;;20.33;45.02
48872;BME280;36154;51.674;7.824;2023-02-03T05:18:39;101390.56;;;20.33;44.83
48872;BME280;36154;51.674;7.824;2023-02-03T05:21:05;101385.38;;;20.33;45.23
48872;BME280;36154;51.674;7.824;2023-02-03T05:23:31;101388.00;;;20.31;45.40
48872;BME280;36154;51.674;7.824;2023-02-03T05:25:56;101386.25;;;20.34;45.31
48872;BME280;36154;51.674;7.824;2023-02-03T05:28:21;101371.59;;;20.33;45.09
48872;BME280;36154;51.674;7.824;2023-02-03T05:30:46;101376.81;;;20.31;45.10
48872;BME280;36154;51.674;7.824;2023-02-03T05:33:12;101375.97;;;20.30;45.05
48872;BME280;36154;51.674;7.824;2023-02-03T05:35:37;101375.97;;;20.30;45.22
48872;BME280;36154;51.674;7.824;2023-02-03T05:38:03;101385.47;;;20.30;45.28
48872;BME280;36154;51.674;7.824;2023-02-03T05:40:28;101377.72;;;20.28;45.31
48872;BME280;36154;51.674;7.824;2023-02-03T05:43:12;101376.00;;;20.27;45.26
48872;BME280;36154;51.674;7.824;2023-02-03T05:45:38;101384.69;;;20.23;45.37
48872;BME280;36154;51.674;7.824;2023-02-03T05:48:03;101380.38;;;20.24;45.53
48872;BME280;36154;51.674;7.824;2023-02-03T05:50:29;101373.53;;;20.20;45.55
48872;BME280;36154;51.674;7.824;2023-02-03T05:53:01;101381.25;;;20.21;45.70
48872;BME280;36154;51.674;7.824;2023-02-03T05:55:27;101367.47;;;20.21;45.61
48872;BME280;36154;51.674;7.824;2023-02-03T05:57:53;101370.06;;;20.21;45.77
48872;BME280;36154;51.674;7.824;2023-02-03T06:00:19;101374.41;;;20.20;45.70
48872;BME280;36154;51.674;7.824;2023-02-03T06:02:50;101367.50;;;20.19;45.60
48872;BME280;36154;51.674;7.824;2023-02-03T06:05:16;101367.50;;;20.19;45.51
48872;BME280;36154;51.674;7.824;2023-02-03T06:07:41;101353.72;;;20.19;45.75
48872;BME280;36154;51.674;7.824;2023-02-03T06:10:07;101360.59;;;20.18;45.57
48872;BME280;36154;51.674;7.824;2023-02-03T06:12:32;101364.94;;;20.16;45.67
48872;BME280;36154;51.674;7.824;2023-02-03T06:14:57;101371.03;;;20.15;45.70
48872;BME280;36154;51.674;7.824;2023-02-03T06:17:22;101371.03;;;20.15;45.67
48872;BME280;36154;51.674;7.824;2023-02-03T06:19:48;101366.72;;;20.14;45.73
48872;BME280;36154;51.674;7.824;2023-02-03T06:22:13;101370.16;;;20.13;45.62
48872;BME280;36154;51.674;7.824;2023-02-03T06:24:38;101385.72;;;20.11;45.60
48872;BME280;36154;51.674;7.824;2023-02-03T06:27:06;101386.59;;;20.12;45.67
48872;BME280;36154;51.674;7.824;2023-02-03T06:29:31;101384.88;;;20.11;45.40
48872;BME280;36154;51.674;7.824;2023-02-03T06:31:56;101384.03;;;20.09;45.50
48872;BME280;36154;51.674;7.824;2023-02-03T06:34:22;101386.63;;;20.09;45.57
48872;BME280;36154;51.674;7.824;2023-02-03T06:36:47;101381.47;;;20.09;45.47
48872;BME280;36154;51.674;7.824;2023-02-03T06:39:13;101384.91;;;20.08;45.58
48872;BME280;36154;51.674;7.824;2023-02-03T06:41:38;101389.25;;;20.07;45.52
48872;BME280;36154;51.674;7.824;2023-02-03T06:44:04;101381.50;;;20.06;45.43
48872;BME280;36154;51.674;7.824;2023-02-03T06:46:29;101373.75;;;20.04;45.51
48872;BME280;36154;51.674;7.824;2023-02-03T06:48:55;101372.91;;;20.04;45.37
48872;BME280;36154;51.674;7.824;2023-02-03T06:51:20;101378.09;;;20.04;45.53
48872;BME280;36154;51.674;7.824;2023-02-03T06:53:45;101382.41;;;20.03;45.36
48872;BME280;36154;51.674;7.824;2023-02-03T06:56:13;101397.06;;;20.03;45.62
48872;BME280;36154;51.674;7.824;2023-02-03T06:58:40;101397.97;;;20.02;45.62
48872;BME280;36154;51.674;7.824;2023-02-03T07:01:06;101407.44;;;20.01;45.42
48872;BME280;36154;51.674;7.824;2023-02-03T07:03:32;101404.00;;;20.01;45.60
48872;BME280;36154;51.674;7.824;2023-02-03T07:05:57;101408.31;;;20.00;45.56
48872;BME280;36154;51.674;7.824;2023-02-03T07:08:22;101418.66;;;20.00;45.57
48872;BME280;36154;51.674;7.824;2023-02-03T07:10:52;101406.59;;;19.99;45.44
48872;BME280;36154;51.674;7.824;2023-02-03T07:13:17;101400.59;;;19.99;45.29
48872;BME280;36154;51.674;7.824;2023-02-03T07:15:43;101385.94;;;19.98;45.55
48872;BME280;36154;51.674;7.824;2023-02-03T07:18:08;101384.22;;;19.98;45.54
48872;BME280;36154;51.674;7.824;2023-02-03T07:20:33;101393.69;;;19.98;45.39
48872;BME280;36154;51.674;7.824;2023-02-03T07:22:59;101407.53;;;19.97;45.60
48872;BME280;36154;51.674;7.824;2023-02-03T07:25:24;101408.34;;;19.97;45.64
48872;BME280;36154;51.674;7.824;2023-02-03T07:27:50;101392.00;;;19.97;45.47
48872;BME280;36154;51.674;7.824;2023-02-03T07:30:16;101388.53;;;19.96;45.51
48872;BME280;36154;51.674;7.824;2023-02-03T07:32:45;101392.00;;;19.97;45.58
48872;BME280;36154;51.674;7.824;2023-02-03T07:35:11;101380.75;;;19.98;45.66
48872;BME280;36154;51.674;7.824;2023-02-03T07:37:36;101380.78;;;19.94;45.54
48872;BME280;36154;51.674;7.824;2023-02-03T07:40:02;101392.00;;;19.97;45.62
48872;BME280;36154;51.674;7.824;2023-02-03T07:42:27;101390.28;;;19.96;45.59
48872;BME280;36154;51.674;7.824;2023-02-03T07:44:52;101376.47;;;19.97;45.50
48872;BME280;36154;51.674;7.824;2023-02-03T07:47:17;101384.25;;;19.97;45.73
48872;BME280;36154;51.674;7.824;2023-02-03T07:49:43;101376.47;;;19.97;45.74
48872;BME280;36154;51.674;7.824;2023-02-03T07:52:08;101381.66;;;19.97;45.71
48872;BME280;36154;51.674;7.824;2023-02-03T07:54:33;101373.88;;;19.97;45.59
48872;BME280;36154;51.674;7.824;2023-02-03T07:56:59;101373.91;;;19.95;45.84
48872;BME280;36154;51.674;7.824;2023-02-03T07:59:24;101379.94;;;19.96;45.83
48872;BME280;36154;51.674;7.824;2023-02-03T08:01:49;101380.78;;;19.94;45.79
48872;BME280;36154;51.674;7.824;2023-02-03T08:04:14;101378.22;;;19.94;45.73
48872;BME280;36154;51.674;7.824;2023-02-03T08:06:42;101379.94;;;19.94;45.66
48872;BME280;36154;51.674;7.824;2023-02-03T08:09:07;101367.84;;;19.94;45.72
48872;BME280;36154;51.674;7.824;2023-02-03T08:11:33;101390.31;;;19.92;45.77
48872;BME280;36154;51.674;7.824;2023-02-03T08:13:58;101385.13;;;19.92;45.68
48872;BME280;36154;51.674;7.824;2023-02-03T08:16:23;101392.91;;;19.91;45.69
48872;BME280;36154;51.674;7.824;2023-02-03T08:18:49;101394.63;;;19.92;45.78
48872;BME280;36154;51.674;7.824;2023-02-03T08:21:14;101387.75;;;19.91;45.58
48872;BME280;36154;51.674;7.824;2023-02-03T08:23:39;101394.66;;;19.90;45.52
48872;BME280;36154;51.674;7.824;2023-02-03T08:26:05;101390.34;;;19.89;45.65
48872;BME280;36154;51.674;7.824;2023-02-03T08:28:30;101400.69;;;19.91;45.54
48872;BME280;36154;51.674;7.824;2023-02-03T08:30:57;101393.78;;;19.91;45.70
48872;BME280;36154;51.674;7.824;2023-02-03T08:33:23;101383.38;;;19.94;45.84
48872;BME280;36154;51.674;7.824;2023-02-03T08:35:49;101386.81;;;19.97;46.27
48872;BME280;36154;51.674;7.824;2023-02-03T08:38:15;101397.09;;;20.00;46.38
48872;BME280;36154;51.674;7.824;2023-02-03T08:40:40;101382.41;;;20.05;46.61
48872;BME280;36154;51.674;7.824;2023-02-03T08:43:06;101389.22;;;20.09;46.84
48872;BME280;36154;51.674;7.824;2023-02-03T08:45:31;101397.78;;;20.12;46.74
48872;BME280;36154;51.674;7.824;2023-02-03T08:47:56;101400.34;;;20.16;46.96
48872;BME280;36154;51.674;7.824;2023-02-03T08:50:22;101396.81;;;20.18;47.05
48872;BME280;36154;51.674;7.824;2023-02-03T08:52:47;101403.69;;;20.22;47.00
48872;BME280;36154;51.674;7.824;2023-02-03T08:55:12;101405.34;;;20.26;47.27
48872;BME280;36154;51.674;7.824;2023-02-03T08:57:38;101407.84;;;20.31;47.32
48872;BME280;36154;51.674;7.824;2023-02-03T09:00:06;101400.06;;;20.33;47.41
48872;BME280;36154;51.674;7.824;2023-02-03T09:02:32;101402.63;;;20.36;47.59
48872;BME280;36154;51.674;7.824;2023-02-03T09:04:57;101406.94;;;20.37;47.50
48872;BME280;36154;51.674;7.824;2023-02-03T09:07:23;101400.81;;;20.39;47.44
48872;BME280;36154;51.674;7.824;2023-02-03T09:09:48;101400.81;;;20.41;47.64
48872;BME280;36154;51.674;7.824;2023-02-03T09:12:13;101389.63;;;20.39;47.48
48872;BME280;36154;51.674;7.824;2023-02-03T09:14:39;101389.59;;;20.42;47.38
48872;BME280;36154;51.674;7.824;2023-02-03T09:17:05;101388.72;;;20.41;47.43
48872;BME280;36154;51.674;7.824;2023-02-03T09:19:32;101391.31;;;20.41;47.24
48872;BME280;36154;51.674;7.824;2023-02-03T09:21:58;101387.00;;;20.42;47.07
48872;BME280;36154;51.674;7.824;2023-02-03T09:24:23;101390.47;;;20.41;47.02
48872;BME280;36154;51.674;7.824;2023-02-03T09:26:51;101389.63;;;20.39;46.88
48872;BME280;36154;51.674;7.824;2023-02-03T09:29:16;101405.13;;;20.42;47.03
48872;BME280;36154;51.674;7.824;2023-02-03T09:31:42;101408.56;;;20.41;47.12
48872;BME280;36154;51.674;7.824;2023-02-03T09:34:08;101397.38;;;20.40;47.05
48872;BME280;36154;51.674;7.824;2023-02-03T09:36:33;101405.13;;;20.40;46.99
48872;BME280;36154;51.674;7.824;2023-02-03T09:38:59;101405.16;;;20.39;47.04
48872;BME280;36154;51.674;7.824;2023-02-03T09:44:37;101418.13;;;20.37;47.40
48872;BME280;36154;51.674;7.824;2023-02-03T09:47:15;101411.22;;;20.36;47.10
48872;BME280;36154;51.674;7.824;2023-02-03T09:49:53;101413.84;;;20.35;47.13
48872;BME280;36154;51.674;7.824;2023-02-03T09:52:22;101406.13;;;20.31;47.24
48872;BME280;36154;51.674;7.824;2023-02-03T09:55:12;101413.00;;;20.34;47.04
48872;BME280;36154;51.674;7.824;2023-02-03T09:57:48;101413.00;;;20.33;46.93
48872;BME280;36154;51.674;7.824;2023-02-03T10:00:25;101443.22;;;20.32;47.14
48872;BME280;36154;51.674;7.824;2023-02-03T10:03:08;101434.59;;;20.31;47.14
48872;BME280;36154;51.674;7.824;2023-02-03T10:08:51;101428.59;;;20.28;47.09
48872;BME280;36154;51.674;7.824;2023-02-03T10:19:23;101410.59;;;20.23;46.98
48872;BME280;36154;51.674;7.824;2023-02-03T10:21:56;101405.41;;;20.23;46.92
48872;BME280;36154;51.674;7.824;2023-02-03T10:24:38;101414.91;;;20.21;46.87
48872;BME280;36154;51.674;7.824;2023-02-03T10:27:07;101408.91;;;20.19;46.90
48872;BME280;36154;51.674;7.824;2023-02-03T10:29:38;101429.59;;;20.19;46.74
48872;BME280;36154;51.674;7.824;2023-02-03T10:32:12;101425.28;;;20.18;46.75
48872;BME280;36154;51.674;7.824;2023-02-03T10:34:38;101441.72;;;20.17;46.93
48872;BME280;36154;51.674;7.824;2023-02-03T10:39:44;101439.16;;;20.16;46.75
48872;BME280;36154;51.674;7.824;2023-02-03T10:42:11;101460.72;;;20.13;46.89
48872;BME280;36154;51.674;7.824;2023-02-03T10:44:40;101436.56;;;20.14;46.63
48872;BME280;36154;51.674;7.824;2023-02-03T10:49:48;101424.50;;;20.13;46.68
48872;BME280;36154;51.674;7.824;2023-02-03T10:52:32;101426.25;;;20.11;46.76
48872;BME280;36154;51.674;7.824;2023-02-03T10:54:58;101417.69;;;20.09;46.69
48872;BME280;36154;51.674;7.824;2023-02-03T10:57:28;101420.28;;;20.07;46.79
48872;BME280;36154;51.674;7.824;2023-02-03T11:00:48;101414.28;;;20.05;46.73
48872;BME280;36154;51.674;7.824;2023-02-03T11:03:25;101440.16;;;20.04;46.79
48872;BME280;36154;51.674;7.824;2023-02-03T11:06:15;101446.22;;;20.03;46.61
48872;BME280;36154;51.674;7.824;2023-02-03T11:08:43;101453.97;;;20.03;46.75
48872;BME280;36154;51.674;7.824;2023-02-03T11:13:39;101459.16;;;20.03;46.59
48872;BME280;36154;51.674;7.824;2023-02-03T11:16:25;101442.78;;;20.01;46.62
48872;BME280;36154;51.674;7.824;2023-02-03T11:19:15;101447.09;;;20.02;46.61
48872;BME280;36154;51.674;7.824;2023-02-03T11:21:48;101459.16;;;20.01;46.51
48872;BME280;36154;51.674;7.824;2023-02-03T11:24:30;101459.19;;;20.00;46.70
48872;BME280;36154;51.674;7.824;2023-02-03T11:27:03;101450.59;;;19.98;46.42
48872;BME280;36154;51.674;7.824;2023-02-03T11:29:33;101459.19;;;20.00;46.50
48872;BME280;36154;51.674;7.824;2023-02-03T11:32:05;101460.06;;;19.99;46.41
48872;BME280;36154;51.674;7.824;2023-02-03T11:34:45;101462.66;;;19.99;46.63
48872;BME280;36154;51.674;7.824;2023-02-03T11:37:41;101443.72;;;19.97;46.46
48872;BME280;36154;51.674;7.824;2023-02-03T11:42:34;101443.72;;;19.97;46.41
48872;BME280;36154;51.674;7.824;2023-02-03T11:47:37;101413.56;;;19.94;46.43
48872;BME280;36154;51.674;7.824;2023-02-03T11:55:44;101405.81;;;19.94;46.10
48872;BME280;36154;51.674;7.824;2023-02-03T11:58:25;101411.84;;;19.93;46.41
48872;BME280;36154;51.674;7.824;2023-02-03T12:11:59;101442.41;;;19.65;45.41
48872;BME280;36154;51.674;7.824;2023-02-03T12:14:34;101437.38;;;19.49;44.68
48872;BME280;36154;51.674;7.824;2023-02-03T12:19:55;101451.22;;;19.45;44.78
48872;BME280;36154;51.674;7.824;2023-02-03T12:22:42;101463.19;;;19.51;45.26
48872;BME280;36154;51.674;7.824;2023-02-03T12:33:48;101490.53;;;19.75;45.63
48872;BME280;36154;51.674;7.824;2023-02-03T12:36:28;101489.59;;;19.81;45.74
48872;BME280;36154;51.674;7.824;2023-02-03T12:39:05;101507.66;;;19.85;45.86
48872;BME280;36154;51.674;7.824;2023-02-03T12:41:37;101498.94;;;19.92;45.85
48872;BME280;36154;51.674;7.824;2023-02-03T12:44:15;101517.84;;;19.98;45.88
48872;BME280;36154;51.674;7.824;2023-02-03T12:46:45;101509.19;;;20.02;45.70
48872;BME280;36154;51.674;7.824;2023-02-03T12:49:29;101481.53;;;20.07;45.82
48872;BME280;36154;51.674;7.824;2023-02-03T12:52:02;101481.44;;;20.11;45.75
48872;BME280;36154;51.674;7.824;2023-02-03T12:54:58;101468.44;;;20.16;45.61
48872;BME280;36154;51.674;7.824;2023-02-03T12:57:39;101476.16;;;20.19;45.91
48872;BME280;36154;51.674;7.824;2023-02-03T13:00:19;101488.22;;;20.22;45.64
48872;BME280;36154;51.674;7.824;2023-02-03T13:02:59;101476.09;;;20.25;45.64
48872;BME280;36154;51.674;7.824;2023-02-03T13:05:47;101483.81;;;20.28;45.61
48872;BME280;36154;51.674;7.824;2023-02-03T13:08:28;101474.28;;;20.30;45.52
48872;BME280;36154;51.674;7.824;2023-02-03T13:11:02;101476.00;;;20.31;45.54
48872;BME280;36154;51.674;7.824;2023-02-03T13:13:39;101477.72;;;20.33;45.50
48872;BME280;36154;51.674;7.824;2023-02-03T13:16:09;101481.13;;;20.35;45.50
48872;BME280;36154;51.674;7.824;2023-02-03T13:18:37;101494.94;;;20.35;45.17
48872;BME280;36154;51.674;7.824;2023-02-03T13:21:09;101490.59;;;20.37;45.25
48872;BME280;36154;51.674;7.824;2023-02-03T13:23:35;101488.00;;;20.37;45.35
48872;BME280;36154;51.674;7.824;2023-02-03T13:26:16;101481.97;;;20.37;45.08
48872;BME280;36154;51.674;7.824;2023-02-03T13:31:45;101481.97;;;20.37;45.05
48872;BME280;36154;51.674;7.824;2023-02-03T13:42:30;101506.16;;;20.34;45.14
48872;BME280;36154;51.674;7.824;2023-02-03T13:45:08;101500.13;;;20.34;45.13
48872;BME280;36154;51.674;7.824;2023-02-03T13:47:36;101520.81;;;20.37;45.22
48872;BME280;36154;51.674;7.824;2023-02-03T13:50:04;101514.75;;;20.36;45.39
48872;BME280;36154;51.674;7.824;2023-02-03T13:52:53;101513.03;;;20.37;45.41
48872;BME280;36154;51.674;7.824;2023-02-03T13:55:30;101515.63;;;20.37;45.59
48872;BME280;36154;51.674;7.824;2023-02-03T13:57:57;101509.56;;;20.36;45.48
48872;BME280;36154;51.674;7.824;2023-02-03T14:03:16;101525.97;;;20.37;45.43
48872;BME280;36154;51.674;7.824;2023-02-03T14:05:43;101539.78;;;20.36;45.60
48872;BME280;36154;51.674;7.824;2023-02-03T14:16:35;101556.28;;;20.28;45.76
48872;BME280;36154;51.674;7.824;2023-02-03T14:19:01;101561.47;;;20.27;45.67
48872;BME280;36154;51.674;7.824;2023-02-03T14:21:28;101560.59;;;20.28;45.68
48872;BME280;36154;51.674;7.824;2023-02-03T14:24:07;101570.94;;;20.26;45.76
48872;BME280;36154;51.674;7.824;2023-02-03T14:26:37;101570.94;;;20.26;45.59
48872;BME280;36154;51.674;7.824;2023-02-03T14:29:06;101556.34;;;20.22;45.71
48872;BME280;36154;51.674;7.824;2023-02-03T14:51:10;101576.28;;;20.14;46.05
48872;BME280;36154;51.674;7.824;2023-02-03T14:57:00;101587.50;;;20.13;45.98
48872;BME280;36154;51.674;7.824;2023-02-03T14:59:22;101591.84;;;20.11;46.06
48872;BME280;36154;51.674;7.824;2023-02-03T15:06:48;101624.66;;;20.09;45.94
48872;BME280;36154;51.674;7.824;2023-02-03T15:12:01;101633.28;;;20.08;45.90
48872;BME280;36154;51.674;7.824;2023-02-03T15:14:29;101627.25;;;20.07;45.97
48872;BME280;36154;51.674;7.824;2023-02-03T15:17:03;101632.41;;;20.07;45.99
48872;BME280;36154;51.674;7.824;2023-02-03T15:19:38;101632.44;;;20.06;46.08